Time;durP1;ratioP1;P1;durP2;ratioP2;P2;SDS_P1;SDS_P2;PMS_P1;PMS_P2;Temp;Humidity;BMP_temperature;BMP_pressure;BME280_temperature;BME280_humidity;BME280_pressure;Samples;Min_cycle;Max_cycle;Signal;HPM_P1;HPM_P2
2022/04/11 00:01:23;;;;;;;;;;;;;;;25.15;32.34;94338.66;5032014;28;9089;-71
2022/04/11 00:03:52;;;;;;;;;;;;;;;25.14;32.68;94342.69;5013340;28;7334;-71
2022/04/11 00:06:18;;;;;;;;;;;;;;;25.15;32.77;94335.91;5015727;28;9082;-71
2022/04/11 00:08:44;;;;;;;;;;;;;;;25.15;32.33;94344.91;5013450;28;7146;-71
2022/04/11 00:11:19;;;;;;;;;;;;;;;25.13;32.61;94336.44;5031542;28;9047;-71
2022/04/11 00:13:51;;;;;;;;;;;;;;;25.11;32.83;94332.69;5010864;28;7029;-71
2022/04/11 00:16:17;;;;;;;;;;;;;;;25.12;32.98;94340.41;5030985;28;9062;-71
2022/04/11 00:18:45;;;;;;;;;;;;;;;25.09;32.68;94338.72;5015146;28;7560;-71
2022/04/11 00:21:16;;;;;;;;;;;;;;;25.11;32.59;94343.69;5031021;28;9098;-71
2022/04/11 00:23:59;;;;;;;;;;;;;;;25.07;32.48;94327.47;5008876;28;9041;-71
2022/04/11 00:26:26;;;;;;;;;;;;;;;25.09;33.00;94335.94;5034364;28;7756;-71
2022/04/11 00:28:54;;;;;;;;;;;;;;;25.07;32.56;94337.72;5045605;28;7072;-71
2022/04/11 00:31:20;;;;;;;;;;;;;;;25.10;32.60;94331.19;5047387;28;7084;-71
2022/04/11 00:33:46;;;;;;;;;;;;;;;25.08;32.68;94323.44;5022853;28;7263;-70
2022/04/11 00:36:21;;;;;;;;;;;;;;;25.07;32.53;94321.19;5036557;28;9576;-70
2022/04/11 00:38:54;;;;;;;;;;;;;;;25.07;32.27;94321.94;5052790;28;9062;-71
2022/04/11 00:41:21;;;;;;;;;;;;;;;25.06;32.82;94328.69;5037567;28;9074;-71
2022/04/11 00:43:53;;;;;;;;;;;;;;;25.05;33.02;94321.72;5042441;28;7287;-71
2022/04/11 00:46:28;;;;;;;;;;;;;;;25.06;32.69;94316.94;5039334;28;7050;-70
2022/04/11 00:48:56;;;;;;;;;;;;;;;25.07;32.81;94310.94;5049095;28;8690;-71
2022/04/11 00:51:39;;;;;;;;;;;;;;;25.07;32.61;94310.19;5032473;28;7498;-71
2022/04/11 00:54:14;;;;;;;;;;;;;;;25.04;32.62;94322.97;5047446;28;8829;-71
2022/04/11 00:56:40;;;;;;;;;;;;;;;25.02;32.67;94319.97;5036943;28;7210;-71
2022/04/11 00:59:06;;;;;;;;;;;;;;;25.03;32.96;94321.47;5032442;28;9142;-71
2022/04/11 01:01:39;;;;;;;;;;;;;;;25.04;32.16;94319.44;5037152;28;7133;-71
2022/04/11 01:04:42;;;;;;;;;;;;;;;25.03;32.65;94310.47;5045517;28;7037;-71
2022/04/11 01:07:21;;;;;;;;;;;;;;;25.01;32.60;94312.97;4973091;28;7060;-71
2022/04/11 01:10:01;;;;;;;;;;;;;;;25.00;33.33;94311.47;4966026;28;7897;-71
2022/04/11 01:12:37;;;;;;;;;;;;;;;24.99;33.06;94306.50;4975212;28;7080;-71
2022/04/11 01:15:05;;;;;;;;;;;;;;;24.99;32.86;94306.50;4958109;28;8762;-71
2022/04/11 01:17:41;;;;;;;;;;;;;;;24.97;32.63;94295.25;4983957;28;7498;-71
2022/04/11 01:20:27;;;;;;;;;;;;;;;24.98;32.93;94285.72;4967785;28;7618;-71
2022/04/11 01:23:27;;;;;;;;;;;;;;;24.99;32.64;94287.22;4973310;28;8820;-71
2022/04/11 01:26:06;;;;;;;;;;;;;;;24.98;32.86;94277.47;4913997;29;7903;-71
2022/04/11 01:28:43;;;;;;;;;;;;;;;24.99;32.52;94276.22;4908334;29;7861;-71
2022/04/11 01:31:19;;;;;;;;;;;;;;;24.98;32.97;94280.22;4913778;29;9191;-71
2022/04/11 01:33:45;;;;;;;;;;;;;;;24.97;32.96;94273.97;4913702;29;9195;-71
2022/04/11 01:36:22;;;;;;;;;;;;;;;24.97;32.95;94268.47;4914084;29;7301;-71
2022/04/11 01:39:00;;;;;;;;;;;;;;;24.97;32.72;94267.75;4913530;29;8798;-71
2022/04/11 01:41:55;;;;;;;;;;;;;;;24.97;32.69;94265.72;4948326;28;9219;-71
2022/04/11 01:44:39;;;;;;;;;;;;;;;24.96;32.69;94264.22;4913125;29;7174;-71
2022/04/11 01:47:25;;;;;;;;;;;;;;;24.96;32.87;94266.97;4899730;29;7260;-70
2022/04/11 01:49:51;;;;;;;;;;;;;;;24.96;33.11;94266.97;4894861;29;7374;-71
2022/04/11 01:52:17;;;;;;;;;;;;;;;24.96;32.66;94269.72;4897583;29;7125;-71
2022/04/11 01:54:43;;;;;;;;;;;;;;;24.95;33.09;94265.47;4902709;29;7493;-71
2022/04/11 01:57:11;;;;;;;;;;;;;;;24.96;33.03;94274.47;4894431;29;7259;-71
2022/04/11 01:59:37;;;;;;;;;;;;;;;24.95;33.18;94264.72;4900481;29;9110;-71
2022/04/11 02:02:16;;;;;;;;;;;;;;;24.94;33.08;94257.75;4923264;29;7340;-71
2022/04/11 02:04:53;;;;;;;;;;;;;;;24.91;33.14;94251.25;4950483;29;7050;-71
2022/04/11 02:07:19;;;;;;;;;;;;;;;24.92;32.84;94250.00;4950175;29;9465;-70
2022/04/11 02:10:03;;;;;;;;;;;;;;;24.94;32.84;94243.97;4943767;29;7350;-71
2022/04/11 02:12:31;;;;;;;;;;;;;;;24.94;32.92;94241.22;4946353;29;7008;-71
2022/04/11 02:14:57;;;;;;;;;;;;;;;24.92;32.76;94236.25;4941179;29;7261;-71
2022/04/11 02:17:23;;;;;;;;;;;;;;;24.91;32.78;94226.47;4946134;28;7421;-71
2022/04/11 02:19:52;;;;;;;;;;;;;;;24.92;32.94;94228.00;4939823;28;9119;-71
2022/04/11 02:22:18;;;;;;;;;;;;;;;24.94;33.11;94227.47;5042351;28;6852;-71
2022/04/11 02:24:48;;;;;;;;;;;;;;;24.93;32.66;94214.97;5061790;28;9014;-71
2022/04/11 02:27:15;;;;;;;;;;;;;;;24.91;32.93;94211.97;5036788;28;8243;-71
2022/04/11 02:29:41;;;;;;;;;;;;;;;24.93;32.83;94204.72;5043628;28;9058;-71
2022/04/11 02:32:14;;;;;;;;;;;;;;;24.94;32.84;94199.97;5039271;28;9082;-71
2022/04/11 02:34:56;;;;;;;;;;;;;;;24.95;33.07;94193.94;5047983;28;9015;-72
2022/04/11 02:37:38;;;;;;;;;;;;;;;24.96;33.23;94191.94;5040163;28;7479;-72
2022/04/11 02:40:34;;;;;;;;;;;;;;;24.96;32.67;94189.94;5035175;28;7108;-72
2022/04/11 02:43:01;;;;;;;;;;;;;;;24.96;33.34;94180.94;4950934;28;7064;-71
2022/04/11 02:45:36;;;;;;;;;;;;;;;24.94;33.39;94164.94;4943147;28;9085;-71
2022/04/11 02:48:37;;;;;;;;;;;;;;;24.94;32.95;94158.69;4947720;28;8186;-72
2022/04/11 02:51:03;;;;;;;;;;;;;;;24.92;33.12;94158.47;4900387;29;9407;-71
2022/04/11 02:53:46;;;;;;;;;;;;;;;24.94;33.12;94164.19;4879617;29;6992;-71
2022/04/11 02:56:18;;;;;;;;;;;;;;;24.91;32.96;94148.69;4883961;29;7167;-71
2022/04/11 02:58:44;;;;;;;;;;;;;;;24.91;32.90;94138.44;4901281;29;7399;-71
2022/04/11 03:01:12;;;;;;;;;;;;;;;24.94;32.94;94142.19;4899651;29;7137;-71
2022/04/11 03:03:41;;;;;;;;;;;;;;;24.92;33.03;94133.69;4904739;29;6997;-71
2022/04/11 03:06:32;;;;;;;;;;;;;;;24.93;32.77;94148.94;4898053;29;8165;-71
2022/04/11 03:08:58;;;;;;;;;;;;;;;24.92;32.96;94136.44;4879508;29;7078;-72
2022/04/11 03:11:24;;;;;;;;;;;;;;;24.90;33.28;94133.47;4900974;29;7122;-71
2022/04/11 03:13:52;;;;;;;;;;;;;;;24.92;33.20;94139.19;4893643;29;9059;-71
2022/04/11 03:16:56;;;;;;;;;;;;;;;24.91;32.69;94127.44;4894434;29;8847;-71
2022/04/11 03:19:53;;;;;;;;;;;;;;;24.92;32.76;94119.94;4870568;29;7244;-71
2022/04/11 03:22:35;;;;;;;;;;;;;;;24.89;32.66;94109.94;4878411;29;7264;-71
2022/04/11 03:25:17;;;;;;;;;;;;;;;24.87;33.09;94106.97;4891807;29;9138;-71
2022/04/11 03:27:57;;;;;;;;;;;;;;;24.85;33.46;94106.75;4911565;28;7324;-71
2022/04/11 03:30:23;;;;;;;;;;;;;;;24.87;32.94;94104.97;4918739;29;7259;-71
2022/04/11 03:33:18;;;;;;;;;;;;;;;24.86;33.43;94105.50;4913310;29;8723;-70
2022/04/11 03:35:44;;;;;;;;;;;;;;;24.86;32.88;94108.97;4922261;29;7085;-70
2022/04/11 03:38:20;;;;;;;;;;;;;;;24.87;33.14;94104.22;4916050;29;9397;-69
2022/04/11 03:40:56;;;;;;;;;;;;;;;24.84;32.56;94092.22;4933677;28;9225;-70
2022/04/11 03:43:22;;;;;;;;;;;;;;;24.87;33.51;94098.72;4914549;28;8783;-70
2022/04/11 03:45:48;;;;;;;;;;;;;;;24.85;33.49;94096.50;4926724;28;8412;-69
2022/04/11 03:48:14;;;;;;;;;;;;;;;24.83;32.91;94095.50;4918725;28;9079;-70
2022/04/11 03:50:40;;;;;;;;;;;;;;;24.82;33.26;94091.25;4972311;28;8792;-69
2022/04/11 03:53:06;;;;;;;;;;;;;;;24.82;33.00;94092.00;4999172;28;9577;-69
2022/04/11 03:55:32;;;;;;;;;;;;;;;24.82;33.08;94102.25;4985955;28;9487;-70
2022/04/11 03:57:58;;;;;;;;;;;;;;;24.80;32.92;94099.28;5010293;28;7016;-69
2022/04/11 04:00:29;;;;;;;;;;;;;;;24.83;32.78;94092.75;5057257;28;7207;-70
2022/04/11 04:03:11;;;;;;;;;;;;;;;24.83;32.91;94093.50;5039691;28;9166;-69
2022/04/11 04:05:45;;;;;;;;;;;;;;;24.83;33.08;94098.25;5032925;28;9040;-70
2022/04/11 04:08:17;;;;;;;;;;;;;;;24.78;32.96;94101.78;5046067;28;9737;-70
2022/04/11 04:10:45;;;;;;;;;;;;;;;24.80;32.96;94099.28;5044404;28;9254;-70
2022/04/11 04:13:11;;;;;;;;;;;;;;;24.78;33.31;94096.28;5031124;28;7050;-70
2022/04/11 04:15:38;;;;;;;;;;;;;;;24.79;33.18;94098.53;5039852;28;7036;-70
2022/04/11 04:18:04;;;;;;;;;;;;;;;24.80;32.87;94099.28;5056875;28;7132;-69
2022/04/11 04:20:30;;;;;;;;;;;;;;;24.81;32.93;94100.78;5030721;28;7976;-69
2022/04/11 04:22:58;;;;;;;;;;;;;;;24.80;32.67;94107.53;5047031;28;7159;-68
2022/04/11 04:25:33;;;;;;;;;;;;;;;24.81;32.76;94107.03;5039684;28;9071;-69
2022/04/11 04:28:03;;;;;;;;;;;;;;;24.81;32.18;94107.03;5044606;28;9131;-68
2022/04/11 04:30:48;;;;;;;;;;;;;;;24.80;32.27;94111.03;5056926;28;7031;-68
2022/04/11 04:33:19;;;;;;;;;;;;;;;24.79;32.23;94098.53;5033034;28;7174;-68
2022/04/11 04:35:45;;;;;;;;;;;;;;;24.78;32.23;94094.28;5047472;28;7768;-67
2022/04/11 04:38:11;;;;;;;;;;;;;;;24.81;32.27;94098.03;5040161;28;7634;-68
2022/04/11 04:40:39;;;;;;;;;;;;;;;24.83;32.47;94088.00;5043088;28;9641;-69
2022/04/11 04:43:08;;;;;;;;;;;;;;;24.83;32.49;94098.25;5035135;28;9663;-70
2022/04/11 04:45:38;;;;;;;;;;;;;;;24.82;31.91;94105.75;5050102;28;7269;-69
2022/04/11 04:48:09;;;;;;;;;;;;;;;24.82;32.10;94107.75;5034362;28;8254;-69
2022/04/11 04:50:41;;;;;;;;;;;;;;;24.81;31.47;94111.78;5056787;28;7220;-69
2022/04/11 04:53:13;;;;;;;;;;;;;;;24.78;32.01;94124.53;5041456;28;7243;-69
2022/04/11 04:55:39;;;;;;;;;;;;;;;24.79;31.64;94119.78;5057149;28;7315;-69
2022/04/11 04:58:05;;;;;;;;;;;;;;;24.77;32.08;94120.31;5036123;28;7240;-72
2022/04/11 05:00:31;;;;;;;;;;;;;;;24.80;31.87;94130.28;5042948;28;7196;-72
2022/04/11 05:02:59;;;;;;;;;;;;;;;24.79;31.91;94130.81;5037625;28;8817;-72
2022/04/11 05:05:28;;;;;;;;;;;;;;;24.79;31.58;94128.03;5036871;28;9593;-72
2022/04/11 05:07:55;;;;;;;;;;;;;;;24.78;32.37;94121.78;5049113;28;9392;-72
2022/04/11 05:10:22;;;;;;;;;;;;;;;24.79;32.20;94125.28;5050257;28;8859;-72
2022/04/11 05:13:04;;;;;;;;;;;;;;;24.77;31.91;94128.56;5045721;28;9103;-71
2022/04/11 05:15:30;;;;;;;;;;;;;;;24.77;32.16;94134.06;5036395;28;8997;-72
2022/04/11 05:18:00;;;;;;;;;;;;;;;24.73;32.63;94134.31;5038643;28;8618;-72
2022/04/11 05:20:37;;;;;;;;;;;;;;;24.70;31.77;94126.34;5043153;28;7269;-68
2022/04/11 05:23:19;;;;;;;;;;;;;;;24.77;32.26;94130.56;5045399;28;7029;-69
2022/04/11 05:25:57;;;;;;;;;;;;;;;24.80;31.83;94137.78;5041918;28;7973;-69
2022/04/11 05:28:38;;;;;;;;;;;;;;;24.75;32.05;94136.56;5040030;28;9299;-68
2022/04/11 05:31:04;;;;;;;;;;;;;;;24.78;32.00;94149.31;5035066;28;9076;-69
2022/04/11 05:33:57;;;;;;;;;;;;;;;24.76;31.79;94142.81;5053932;28;9377;-69
2022/04/11 05:36:23;;;;;;;;;;;;;;;24.75;31.77;94149.59;4990327;28;8756;-69
2022/04/11 05:39:01;;;;;;;;;;;;;;;24.75;31.87;94146.84;5006249;28;7170;-69
2022/04/11 05:41:41;;;;;;;;;;;;;;;24.77;31.92;94155.31;4991358;28;9425;-69
2022/04/11 05:44:32;;;;;;;;;;;;;;;24.78;32.02;94154.03;5001918;28;8888;-69
2022/04/11 05:46:59;;;;;;;;;;;;;;;24.79;32.03;94155.56;5004137;28;9658;-69
2022/04/11 05:49:39;;;;;;;;;;;;;;;24.78;31.53;94156.78;5006331;28;7257;-69
2022/04/11 05:52:08;;;;;;;;;;;;;;;24.75;31.55;94164.06;5002746;28;8867;-69
2022/04/11 05:54:51;;;;;;;;;;;;;;;24.75;31.63;94175.06;5001511;28;8821;-68
2022/04/11 05:57:16;;;;;;;;;;;;;;;24.78;31.69;94173.31;4977570;28;7081;-69
2022/04/11 05:59:42;;;;;;;;;;;;;;;24.76;31.77;94175.81;4978342;28;9063;-68
2022/04/11 06:02:11;;;;;;;;;;;;;;;24.76;32.07;94186.81;5004274;28;7367;-68
2022/04/11 06:04:38;;;;;;;;;;;;;;;24.75;31.88;94191.56;4997050;28;9104;-66
2022/04/11 06:07:04;;;;;;;;;;;;;;;24.73;32.20;94198.81;4976363;28;7239;-70
2022/04/11 06:09:34;;;;;;;;;;;;;;;24.73;31.48;94193.31;4994876;28;9515;-70
2022/04/11 06:12:08;;;;;;;;;;;;;;;24.70;31.69;94190.34;4993899;28;9398;-70
2022/04/11 06:14:36;;;;;;;;;;;;;;;24.73;31.64;94185.06;5029385;28;7028;-70
2022/04/11 06:17:14;;;;;;;;;;;;;;;24.69;31.36;94177.84;5033305;28;9547;-69
2022/04/11 06:19:46;;;;;;;;;;;;;;;24.69;31.50;94180.59;5039360;28;6862;-70
2022/04/11 06:22:40;;;;;;;;;;;;;;;24.70;31.84;94181.34;5045479;28;8716;-70
2022/04/11 06:25:21;;;;;;;;;;;;;;;24.70;32.37;94182.09;4999663;28;8764;-70
2022/04/11 06:27:48;;;;;;;;;;;;;;;24.67;32.04;94185.84;4999453;28;7064;-70
2022/04/11 06:30:22;;;;;;;;;;;;;;;24.67;31.93;94191.34;4991424;28;6995;-70
2022/04/11 06:32:53;;;;;;;;;;;;;;;24.65;32.31;94190.38;4995813;28;8696;-70
2022/04/11 06:35:33;;;;;;;;;;;;;;;24.65;32.29;94191.13;4982384;28;7158;-70
2022/04/11 06:38:04;;;;;;;;;;;;;;;24.65;32.18;94188.38;4975816;28;7813;-70
2022/04/11 06:40:30;;;;;;;;;;;;;;;24.63;32.33;94185.38;4979188;28;6873;-69
2022/04/11 06:43:08;;;;;;;;;;;;;;;24.60;32.32;94180.88;4990329;28;9355;-69
2022/04/11 06:45:36;;;;;;;;;;;;;;;24.56;32.62;94183.16;4982874;28;6996;-69
2022/04/11 06:48:11;;;;;;;;;;;;;;;24.54;32.60;94182.94;4980488;28;8623;-69
2022/04/11 06:50:40;;;;;;;;;;;;;;;24.55;32.43;94178.19;4986392;28;6954;-69
2022/04/11 06:53:09;;;;;;;;;;;;;;;24.54;32.74;94180.19;4984725;28;9417;-69
2022/04/11 06:55:38;;;;;;;;;;;;;;;24.53;32.48;94186.19;4990130;28;8599;-72
2022/04/11 06:58:04;;;;;;;;;;;;;;;24.51;32.43;94177.72;4985506;28;9445;-70
2022/04/11 07:00:30;;;;;;;;;;;;;;;24.53;32.97;94177.94;4994346;28;8517;-70
2022/04/11 07:02:56;;;;;;;;;;;;;;;24.51;32.73;94180.47;5051508;28;7273;-70
2022/04/11 07:05:24;;;;;;;;;;;;;;;24.50;32.98;94176.19;5040982;28;7251;-70
2022/04/11 07:07:51;;;;;;;;;;;;;;;24.55;33.00;94172.69;5038289;28;9010;-71
2022/04/11 07:10:17;;;;;;;;;;;;;;;24.55;33.16;94164.44;5041178;28;7880;-69
2022/04/11 07:12:49;;;;;;;;;;;;;;;24.54;33.17;94169.19;5044672;28;9019;-70
2022/04/11 07:15:17;;;;;;;;;;;;;;;24.55;33.40;94161.69;5035100;28;7012;-69
2022/04/11 07:17:44;;;;;;;;;;;;;;;24.57;33.22;94159.94;5043461;28;9749;-69
2022/04/11 07:20:10;;;;;;;;;;;;;;;24.60;32.54;94166.38;5048328;28;7234;-69
2022/04/11 07:23:05;;;;;;;;;;;;;;;24.57;32.78;94175.66;5051924;28;7152;-68
2022/04/11 07:25:33;;;;;;;;;;;;;;;24.56;32.84;94172.16;5011591;28;7156;-68
2022/04/11 07:28:10;;;;;;;;;;;;;;;24.53;32.73;94164.91;4997164;28;7002;-69
2022/04/11 07:30:49;;;;;;;;;;;;;;;24.59;32.71;94173.16;5006414;28;9351;-71
2022/04/11 07:33:25;;;;;;;;;;;;;;;24.57;32.91;94173.66;4993867;28;7252;-70
2022/04/11 07:36:12;;;;;;;;;;;;;;;24.62;33.45;94166.66;5005070;28;9270;-70
2022/04/11 07:38:39;;;;;;;;;;;;;;;24.62;33.47;94172.88;4995882;28;7896;-71
2022/04/11 07:41:26;;;;;;;;;;;;;;;24.62;33.32;94170.13;5011252;28;9061;-71
2022/04/11 07:43:57;;;;;;;;;;;;;;;24.64;33.64;94172.38;5008162;28;9109;-71
2022/04/11 07:46:25;;;;;;;;;;;;;;;24.62;33.56;94167.38;4993405;28;9278;-70
2022/04/11 07:48:52;;;;;;;;;;;;;;;24.61;33.84;94174.16;5010260;28;7341;-70
2022/04/11 07:51:32;;;;;;;;;;;;;;;24.63;33.36;94177.13;4993018;28;9083;-70
2022/04/11 07:54:09;;;;;;;;;;;;;;;24.63;33.62;94173.63;4988882;28;7266;-70
2022/04/11 07:56:46;;;;;;;;;;;;;;;24.65;33.64;94169.13;4994406;28;8518;-70
2022/04/11 07:59:22;;;;;;;;;;;;;;;24.68;33.81;94170.09;4994859;28;6991;-70
2022/04/11 08:01:48;;;;;;;;;;;;;;;24.68;33.69;94170.81;5017930;28;9023;-71
2022/04/11 08:04:14;;;;;;;;;;;;;;;24.68;33.77;94168.06;5043938;28;8758;-70
2022/04/11 08:06:46;;;;;;;;;;;;;;;24.70;33.41;94168.34;5037231;28;7369;-69
2022/04/11 08:09:31;;;;;;;;;;;;;;;24.69;33.34;94166.09;5035746;28;9689;-69
2022/04/11 08:11:59;;;;;;;;;;;;;;;24.67;33.64;94172.09;5048833;28;7236;-69
2022/04/11 08:14:29;;;;;;;;;;;;;;;24.66;33.46;94161.63;5034195;28;7963;-69
2022/04/11 08:16:59;;;;;;;;;;;;;;;24.66;33.83;94162.34;5042453;28;7227;-69
2022/04/11 08:19:36;;;;;;;;;;;;;;;24.68;33.64;94150.84;5043061;28;9035;-72
2022/04/11 08:22:15;;;;;;;;;;;;;;;24.67;33.30;94155.59;5041904;28;8868;-69
2022/04/11 08:24:44;;;;;;;;;;;;;;;24.69;34.21;94153.09;5039005;28;9326;-68
2022/04/11 08:27:18;;;;;;;;;;;;;;;24.67;33.24;94149.34;5058649;28;7140;-68
2022/04/11 08:29:45;;;;;;;;;;;;;;;24.70;33.55;94153.84;5051439;28;9046;-68
2022/04/11 08:32:12;;;;;;;;;;;;;;;24.70;33.84;94157.34;5047368;28;7879;-68
2022/04/11 08:34:39;;;;;;;;;;;;;;;24.70;33.78;94157.34;5054479;28;9188;-68
2022/04/11 08:37:06;;;;;;;;;;;;;;;24.72;33.48;94154.06;5033786;28;7308;-68
2022/04/11 08:39:33;;;;;;;;;;;;;;;24.72;33.69;94154.06;5039483;28;7514;-68
2022/04/11 08:42:01;;;;;;;;;;;;;;;24.72;33.40;94159.56;5045332;28;8068;-68
2022/04/11 08:44:32;;;;;;;;;;;;;;;24.71;33.80;94158.81;5055694;28;9189;-68
2022/04/11 08:47:05;;;;;;;;;;;;;;;24.73;33.81;94148.06;5041599;28;9407;-71
2022/04/11 08:49:31;;;;;;;;;;;;;;;24.78;33.37;94154.03;5032906;28;9165;-72
2022/04/11 08:51:58;;;;;;;;;;;;;;;24.80;33.66;94149.53;5036211;28;7281;-72
2022/04/11 08:54:28;;;;;;;;;;;;;;;24.79;33.47;94147.31;5051114;28;9142;-72
2022/04/11 08:56:54;;;;;;;;;;;;;;;24.78;32.55;94145.78;5036908;28;7235;-71
2022/04/11 08:59:32;;;;;;;;;;;;;;;24.80;32.45;94146.03;5043556;28;7349;-71
2022/04/11 09:01:58;;;;;;;;;;;;;;;24.77;31.79;94141.56;5044641;28;8397;-70
2022/04/11 09:04:24;;;;;;;;;;;;;;;24.77;32.08;94150.56;5055444;28;8354;-71
2022/04/11 09:07:02;;;;;;;;;;;;;;;24.77;31.81;94141.56;5032817;28;7234;-70
2022/04/11 09:09:45;;;;;;;;;;;;;;;24.80;32.20;94146.78;5056329;28;7341;-71
2022/04/11 09:12:20;;;;;;;;;;;;;;;24.80;31.81;94151.53;5035263;28;7272;-71
2022/04/11 09:15:05;;;;;;;;;;;;;;;24.81;32.12;94155.78;5039910;28;7205;-71
2022/04/11 09:17:40;;;;;;;;;;;;;;;24.81;32.48;94153.03;5038997;28;8916;-71
2022/04/11 09:20:11;;;;;;;;;;;;;;;24.81;32.44;94150.28;5038802;28;6864;-71
2022/04/11 09:22:43;;;;;;;;;;;;;;;24.79;32.63;94152.81;5052937;28;9726;-72
2022/04/11 09:25:12;;;;;;;;;;;;;;;24.81;32.58;94150.28;5046892;28;9386;-70
2022/04/11 09:27:42;;;;;;;;;;;;;;;24.81;32.47;94150.28;5044442;28;9032;-71
2022/04/11 09:30:31;;;;;;;;;;;;;;;24.83;32.84;94150.53;5041475;28;9392;-71
2022/04/11 09:32:58;;;;;;;;;;;;;;;24.85;32.58;94150.75;5054535;28;9361;-71
2022/04/11 09:35:30;;;;;;;;;;;;;;;24.88;33.06;94144.25;5042644;28;7623;-71
2022/04/11 09:38:20;;;;;;;;;;;;;;;24.89;32.33;94151.22;5036800;28;9206;-71
2022/04/11 09:40:53;;;;;;;;;;;;;;;24.88;32.35;94133.22;5035300;28;7274;-71
2022/04/11 09:43:33;;;;;;;;;;;;;;;24.87;32.87;94126.22;5033190;28;9092;-72
2022/04/11 09:46:02;;;;;;;;;;;;;;;24.88;32.97;94122.22;5040043;28;9112;-72
2022/04/11 09:48:37;;;;;;;;;;;;;;;24.92;33.18;94130.94;5037684;28;7487;-71
2022/04/11 09:51:10;;;;;;;;;;;;;;;24.90;32.82;94120.47;5050251;28;9206;-72
2022/04/11 09:53:38;;;;;;;;;;;;;;;24.91;32.77;94121.94;5048925;28;7588;-71
2022/04/11 09:56:06;;;;;;;;;;;;;;;24.91;33.35;94119.19;5044342;28;7103;-71
2022/04/11 09:58:41;;;;;;;;;;;;;;;24.94;33.39;94133.94;5033611;28;7725;-71
2022/04/11 10:01:10;;;;;;;;;;;;;;;24.94;33.07;94131.94;5041172;28;7829;-72
2022/04/11 10:03:38;;;;;;;;;;;;;;;24.94;33.01;94129.19;5047018;28;7240;-72
2022/04/11 10:06:06;;;;;;;;;;;;;;;24.94;33.13;94129.19;5039185;28;9130;-71
2022/04/11 10:08:35;;;;;;;;;;;;;;;24.95;33.30;94127.91;5045797;28;8294;-72
2022/04/11 10:11:09;;;;;;;;;;;;;;;24.95;33.29;94118.91;5034413;28;7575;-73
2022/04/11 10:14:10;;;;;;;;;;;;;;;24.97;33.29;94121.91;5040288;28;7166;-73
2022/04/11 10:17:01;;;;;;;;;;;;;;;24.97;33.32;94122.63;4988332;28;9546;-72
2022/04/11 10:19:42;;;;;;;;;;;;;;;24.98;33.17;94118.63;5007619;28;7316;-72
2022/04/11 10:22:27;;;;;;;;;;;;;;;25.00;33.32;94118.13;4980187;28;9104;-72
2022/04/11 10:25:21;;;;;;;;;;;;;;;25.00;32.96;94112.63;4994352;28;9067;-73
2022/04/11 10:28:19;;;;;;;;;;;;;;;25.01;33.08;94108.63;4986303;28;9083;-72
2022/04/11 10:31:14;;;;;;;;;;;;;;;25.03;33.18;94111.59;4996914;28;7599;-73
2022/04/11 10:34:03;;;;;;;;;;;;;;;25.03;33.68;94106.09;5012965;28;6996;-72
2022/04/11 10:36:38;;;;;;;;;;;;;;;25.05;33.43;94103.56;4995864;28;7276;-73
2022/04/11 10:39:16;;;;;;;;;;;;;;;25.05;33.51;94101.56;4990032;28;8192;-73
2022/04/11 10:41:54;;;;;;;;;;;;;;;25.05;33.77;94104.31;4993650;28;8782;-71
2022/04/11 10:44:51;;;;;;;;;;;;;;;25.07;33.83;94106.56;5009721;28;9184;-72
2022/04/11 10:47:34;;;;;;;;;;;;;;;25.07;33.51;94101.06;4993610;28;9159;-72
2022/04/11 10:50:01;;;;;;;;;;;;;;;25.07;32.88;94101.06;5013355;28;8816;-72
2022/04/11 10:52:30;;;;;;;;;;;;;;;25.09;33.99;94102.03;5026507;28;7000;-72
2022/04/11 10:55:06;;;;;;;;;;;;;;;25.09;33.63;94087.53;5042985;28;7200;-72
2022/04/11 10:57:36;;;;;;;;;;;;;;;25.10;33.80;94083.53;5037879;28;7057;-71
2022/04/11 11:00:15;;;;;;;;;;;;;;;25.10;33.78;94083.53;5042783;28;7356;-72
2022/04/11 11:05:36;;;;;;;;;;;;;;;25.15;33.64;94074.44;5043876;28;7159;-72
2022/04/11 11:08:11;;;;;;;;;;;;;;;25.15;33.56;94077.19;5041571;28;8097;-72
2022/04/11 11:10:52;;;;;;;;;;;;;;;25.15;33.99;94075.19;5059624;28;7167;-73
2022/04/11 11:13:36;;;;;;;;;;;;;;;25.15;34.16;94075.19;5040436;28;8049;-72
2022/04/11 11:16:09;;;;;;;;;;;;;;;25.13;33.92;94066.72;5047922;28;7465;-72
2022/04/11 11:18:50;;;;;;;;;;;;;;;25.19;34.48;94063.91;5033945;28;9735;-72
2022/04/11 11:21:37;;;;;;;;;;;;;;;25.19;34.09;94053.63;5045857;28;7387;-72
2022/04/11 11:24:08;;;;;;;;;;;;;;;25.20;33.79;94055.16;5035984;28;9032;-71
2022/04/11 11:26:59;;;;;;;;;;;;;;;25.22;34.11;94055.38;5043524;28;9149;-71
2022/04/11 11:30:07;;;;;;;;;;;;;;;25.24;33.75;94046.59;5044262;28;7252;-72
2022/04/11 11:32:44;;;;;;;;;;;;;;;25.24;33.73;94050.09;4971209;28;7305;-72
2022/04/11 11:35:28;;;;;;;;;;;;;;;25.26;34.18;94052.31;4961982;28;9439;-71
2022/04/11 11:38:32;;;;;;;;;;;;;;;25.27;33.67;94048.31;4977609;28;7267;-71
2022/04/11 11:41:07;;;;;;;;;;;;;;;25.29;33.79;94054.06;4965507;28;7703;-72
2022/04/11 11:43:34;;;;;;;;;;;;;;;25.30;34.10;94045.25;4971561;28;7269;-69
2022/04/11 11:46:06;;;;;;;;;;;;;;;25.31;34.34;94043.25;4986251;28;7642;-69
2022/04/11 11:48:56;;;;;;;;;;;;;;;25.33;33.56;94040.75;4968047;28;7098;-70
2022/04/11 11:51:23;;;;;;;;;;;;;;;25.34;33.88;94044.97;4975268;28;9049;-71
2022/04/11 11:53:52;;;;;;;;;;;;;;;25.35;33.67;94038.22;4962403;28;7869;-72
2022/04/11 11:56:20;;;;;;;;;;;;;;;25.36;33.69;94023.16;4975050;28;8124;-73
2022/04/11 11:58:48;;;;;;;;;;;;;;;25.37;33.76;94027.44;4971834;28;7105;-71
2022/04/11 12:01:17;;;;;;;;;;;;;;;25.38;34.08;94024.16;4966940;28;8744;-72
2022/04/11 12:06:52;;;;;;;;;;;;;;;25.41;33.87;94019.63;4975296;28;9713;-73
2022/04/11 12:10:05;;;;;;;;;;;;;;;25.43;33.96;94023.38;5047336;28;7340;-72
2022/04/11 12:12:34;;;;;;;;;;;;;;;25.40;33.08;94020.91;5012745;28;9387;-73
2022/04/11 12:15:07;;;;;;;;;;;;;;;25.34;32.67;94018.19;5006518;28;8845;-72
2022/04/11 12:17:46;;;;;;;;;;;;;;;25.32;31.59;94017.22;5009643;28;9501;-73
2022/04/11 12:20:21;;;;;;;;;;;;;;;25.33;31.21;94013.22;5009887;28;9077;-73
2022/04/11 12:22:59;;;;;;;;;;;;;;;25.28;29.45;94009.25;5030255;28;7268;-72
2022/04/11 12:25:28;;;;;;;;;;;;;;;25.25;29.67;94013.03;5013757;28;7070;-74
2022/04/11 12:28:23;;;;;;;;;;;;;;;25.28;29.08;94008.50;5029602;28;7215;-73
2022/04/11 12:31:18;;;;;;;;;;;;;;;25.32;29.51;94000.69;5008872;28;7736;-72
2022/04/11 12:33:53;;;;;;;;;;;;;;;25.31;29.65;93999.97;5007416;28;9261;-73
2022/04/11 12:36:58;;;;;;;;;;;;;;;25.31;30.04;93997.22;5005262;28;7140;-73
2022/04/11 12:39:54;;;;;;;;;;;;;;;25.33;30.27;93999.44;5015208;28;7374;-72
2022/04/11 12:42:45;;;;;;;;;;;;;;;25.35;30.61;93994.16;5009334;28;8499;-72
2022/04/11 12:45:16;;;;;;;;;;;;;;;25.36;29.40;93987.38;5009921;28;9998;-72
2022/04/11 12:48:04;;;;;;;;;;;;;;;25.35;30.03;93983.16;5011795;28;8591;-73
2022/04/11 12:50:33;;;;;;;;;;;;;;;25.36;30.76;93993.63;5039934;28;9117;-73
2022/04/11 12:53:30;;;;;;;;;;;;;;;25.39;30.73;93987.09;5040508;28;6990;-72
2022/04/11 12:56:22;;;;;;;;;;;;;;;25.41;30.81;93987.34;5037812;28;9184;-72
2022/04/11 12:58:52;;;;;;;;;;;;;;;25.42;30.88;93991.59;5025299;28;9066;-73
2022/04/11 13:01:18;;;;;;;;;;;;;;;25.43;31.41;93984.81;5049517;28;7419;-70
2022/04/11 13:03:43;;;;;;;;;;;;;;;25.44;30.48;93985.59;5040785;28;7383;-72
2022/04/11 13:06:22;;;;;;;;;;;;;;;25.45;31.01;93987.06;5047964;28;7292;-72
2022/04/11 13:09:08;;;;;;;;;;;;;;;25.49;31.10;93987.50;5049190;28;9501;-72
2022/04/11 13:12:06;;;;;;;;;;;;;;;25.51;30.85;93981.50;5043155;28;7134;-72
2022/04/11 13:14:41;;;;;;;;;;;;;;;25.51;31.64;93973.97;5038327;28;9007;-72
2022/04/11 13:20:00;;;;;;;;;;;;;;;25.57;31.99;93971.91;5038475;28;7257;-72
2022/04/11 13:22:27;;;;;;;;;;;;;;;25.59;31.30;93963.09;5048531;28;9199;-71
2022/04/11 13:24:55;;;;;;;;;;;;;;;25.59;31.84;93958.34;5035140;28;7004;-72
2022/04/11 13:27:25;;;;;;;;;;;;;;;25.62;31.33;93951.78;5034190;28;7242;-72
2022/04/11 13:29:51;;;;;;;;;;;;;;;25.62;31.35;93949.03;5035715;28;7341;-72
2022/04/11 13:32:17;;;;;;;;;;;;;;;25.61;31.84;93955.81;5032461;28;7256;-72
2022/04/11 13:34:44;;;;;;;;;;;;;;;25.63;31.35;93944.28;5037314;28;8339;-72
2022/04/11 13:37:11;;;;;;;;;;;;;;;25.61;31.56;93938.53;5030309;28;8946;-73
2022/04/11 13:39:37;;;;;;;;;;;;;;;25.60;32.05;93942.56;5032730;28;7223;-72
2022/04/11 13:42:06;;;;;;;;;;;;;;;25.62;32.23;93942.78;5040508;28;7763;-73
2022/04/11 13:44:32;;;;;;;;;;;;;;;25.60;31.93;93935.03;5037008;28;7346;-71